createdAt,value
2017-09-29T00:02:00.271Z,12.50
2017-09-29T00:04:27.794Z,12.50
2017-09-29T00:06:55.339Z,12.50
2017-09-29T00:09:22.875Z,12.60
2017-09-29T00:11:50.418Z,12.60
2017-09-29T00:14:17.951Z,12.70
2017-09-29T00:16:45.494Z,12.60
2017-09-29T00:19:13.782Z,12.60
2017-09-29T00:21:41.322Z,12.60
2017-09-29T00:24:08.858Z,12.60
2017-09-29T00:26:36.406Z,12.60
2017-09-29T00:29:04.704Z,12.50
2017-09-29T00:31:32.251Z,12.50
2017-09-29T00:33:59.784Z,12.50
2017-09-29T00:36:27.332Z,12.50
2017-09-29T00:38:54.860Z,12.50
2017-09-29T00:41:22.404Z,12.50
2017-09-29T00:43:49.932Z,12.60
2017-09-29T00:46:17.477Z,12.60
2017-09-29T00:48:44.989Z,12.60
2017-09-29T00:51:12.532Z,12.60
2017-09-29T00:53:40.823Z,12.50
2017-09-29T00:56:08.362Z,12.50
2017-09-29T00:58:35.888Z,12.50
2017-09-29T01:01:03.437Z,12.40
2017-09-29T01:03:30.980Z,12.50
2017-09-29T01:05:58.515Z,12.50
2017-09-29T01:08:26.824Z,12.50
2017-09-29T01:10:54.356Z,12.50
2017-09-29T01:13:21.910Z,12.60
2017-09-29T01:15:49.444Z,12.50
2017-09-29T01:18:17.022Z,12.40
2017-09-29T01:20:44.547Z,12.40
2017-09-29T01:23:12.088Z,12.40
2017-09-29T01:25:39.623Z,12.30
2017-09-29T01:28:07.167Z,12.40
2017-09-29T01:30:34.696Z,12.40
2017-09-29T01:33:02.239Z,12.40
2017-09-29T01:35:29.763Z,12.40
2017-09-29T01:37:57.306Z,12.40
2017-09-29T01:40:24.826Z,12.40
2017-09-29T01:42:53.134Z,12.40
2017-09-29T01:45:21.586Z,12.40
2017-09-29T01:47:49.132Z,12.40
2017-09-29T01:50:16.654Z,12.40
2017-09-29T01:52:44.196Z,12.40
2017-09-29T01:55:11.723Z,12.40
2017-09-29T01:57:39.268Z,12.50
2017-09-29T02:00:06.807Z,12.50
2017-09-29T02:02:34.359Z,12.60
2017-09-29T02:05:01.892Z,12.60
2017-09-29T02:07:29.438Z,12.60
2017-09-29T02:09:56.968Z,12.50
2017-09-29T02:12:24.518Z,12.50
2017-09-29T02:14:52.048Z,12.60
2017-09-29T02:17:19.589Z,12.60
2017-09-29T02:19:47.903Z,12.70
2017-09-29T02:22:15.455Z,12.60
2017-09-29T02:24:43.752Z,12.70
2017-09-29T02:27:11.336Z,12.60
2017-09-29T02:29:38.850Z,12.60
2017-09-29T02:32:07.171Z,12.70
2017-09-29T02:34:34.704Z,12.70
2017-09-29T02:37:03.024Z,12.60
2017-09-29T02:39:31.325Z,12.60
2017-09-29T02:41:58.871Z,12.60
2017-09-29T02:44:26.403Z,12.60
2017-09-29T02:46:54.719Z,12.70
2017-09-29T02:49:22.244Z,12.70
2017-09-29T02:51:49.790Z,12.60
2017-09-29T02:54:17.326Z,12.60
2017-09-29T02:56:53.871Z,12.60
2017-09-29T02:59:22.927Z,12.60
2017-09-29T03:01:52.882Z,12.60
2017-09-29T03:04:23.843Z,12.60
2017-09-29T03:06:52.159Z,12.80
2017-09-29T03:09:19.695Z,12.80
2017-09-29T03:11:48.007Z,13.00
2017-09-29T03:14:15.532Z,12.90
2017-09-29T03:16:43.063Z,13.00
2017-09-29T03:19:10.605Z,12.90
2017-09-29T03:21:38.140Z,12.90
2017-09-29T03:24:06.454Z,13.00
2017-09-29T03:26:34.743Z,12.90
2017-09-29T03:29:03.051Z,12.90
2017-09-29T03:31:30.580Z,12.90
2017-09-29T03:33:58.131Z,12.90
2017-09-29T03:36:25.654Z,12.80
2017-09-29T03:38:53.193Z,12.80
2017-09-29T03:41:20.721Z,12.80
2017-09-29T03:43:48.267Z,12.70
2017-09-29T03:46:15.781Z,12.70
2017-09-29T03:48:43.332Z,12.70
2017-09-29T03:51:12.386Z,12.80
2017-09-29T03:53:42.138Z,12.90
2017-09-29T03:56:10.201Z,12.80
2017-09-29T03:58:38.759Z,12.90
2017-09-29T04:01:06.287Z,13.00
2017-09-29T04:03:33.835Z,13.00
2017-09-29T04:06:01.367Z,12.90
2017-09-29T04:08:28.919Z,12.80
2017-09-29T04:10:56.438Z,12.80
2017-09-29T04:13:23.986Z,12.80
2017-09-29T04:15:51.510Z,12.80
2017-09-29T04:18:19.072Z,12.90
2017-09-29T04:20:47.366Z,13.00
2017-09-29T04:23:14.912Z,13.00
2017-09-29T04:25:42.437Z,13.00
2017-09-29T04:28:09.979Z,13.00
2017-09-29T04:30:37.498Z,13.00
2017-09-29T04:33:05.041Z,13.10
2017-09-29T04:35:32.571Z,13.10
2017-09-29T04:38:00.115Z,13.10
2017-09-29T04:40:27.640Z,13.20
2017-09-29T04:42:55.186Z,13.20
2017-09-29T04:45:23.475Z,13.20
2017-09-29T04:47:51.035Z,13.20
2017-09-29T04:50:18.562Z,13.20
2017-09-29T04:52:46.102Z,13.20
2017-09-29T04:55:13.625Z,13.20
2017-09-29T04:57:41.172Z,13.20
2017-09-29T05:00:08.699Z,13.20
2017-09-29T05:02:36.250Z,13.20
2017-09-29T05:05:03.778Z,13.20
2017-09-29T05:07:31.322Z,13.20
2017-09-29T05:09:58.847Z,13.20
2017-09-29T05:12:27.158Z,13.20
2017-09-29T05:14:54.682Z,13.20
2017-09-29T05:17:22.990Z,13.20
2017-09-29T05:19:50.518Z,13.20
2017-09-29T05:22:18.847Z,13.20
2017-09-29T05:24:46.375Z,13.20
2017-09-29T05:27:13.905Z,13.20
2017-09-29T05:29:41.465Z,13.20
2017-09-29T05:32:08.994Z,13.20
2017-09-29T05:34:37.305Z,13.30
2017-09-29T05:37:04.883Z,13.30
2017-09-29T05:39:32.427Z,13.30
2017-09-29T05:41:59.951Z,13.30
2017-09-29T05:44:27.496Z,13.30
2017-09-29T05:46:55.170Z,13.30
2017-09-29T05:49:22.726Z,13.30
2017-09-29T05:51:50.251Z,13.30
2017-09-29T05:54:18.564Z,13.40
2017-09-29T05:56:46.098Z,13.30
2017-09-29T05:59:13.643Z,13.40
2017-09-29T06:01:41.175Z,13.50
2017-09-29T06:04:08.730Z,13.50
2017-09-29T06:06:36.260Z,13.50
2017-09-29T06:09:04.629Z,13.60
2017-09-29T06:11:32.931Z,13.70
2017-09-29T06:14:00.484Z,13.70
2017-09-29T06:16:28.011Z,13.80
2017-09-29T06:18:56.323Z,13.80
2017-09-29T06:21:23.854Z,13.80
2017-09-29T06:23:52.169Z,13.90
2017-09-29T06:26:19.690Z,13.80
2017-09-29T06:28:47.234Z,13.90
2017-09-29T06:31:14.762Z,13.90
2017-09-29T06:33:42.307Z,13.90
2017-09-29T06:36:09.830Z,13.90
2017-09-29T06:38:37.375Z,13.90
2017-09-29T06:41:04.903Z,13.90
2017-09-29T06:43:33.216Z,14.00
2017-09-29T06:46:00.747Z,14.00
2017-09-29T06:48:29.059Z,14.00
2017-09-29T06:50:56.596Z,14.00
2017-09-29T06:53:24.139Z,14.10
2017-09-29T06:55:51.662Z,14.20
2017-09-29T06:58:19.988Z,14.30
2017-09-29T07:00:48.286Z,14.30
2017-09-29T07:03:15.830Z,14.30
2017-09-29T07:05:43.356Z,14.30
2017-09-29T07:08:10.903Z,14.30
2017-09-29T07:10:38.423Z,14.30
2017-09-29T07:13:05.963Z,14.30
2017-09-29T07:15:33.495Z,14.40
2017-09-29T07:18:01.042Z,14.50
2017-09-29T07:20:28.575Z,14.50
2017-09-29T07:22:56.893Z,14.70
2017-09-29T07:25:25.879Z,14.60
2017-09-29T07:27:53.989Z,14.70
2017-09-29T07:30:21.888Z,14.70
2017-09-29T07:32:50.284Z,14.80
2017-09-29T07:35:17.835Z,14.80
2017-09-29T07:37:45.359Z,14.80
2017-09-29T07:40:12.906Z,14.80
2017-09-29T07:42:40.429Z,14.80
2017-09-29T07:45:07.975Z,14.80
2017-09-29T07:47:36.274Z,14.70
2017-09-29T07:50:03.819Z,14.70
2017-09-29T07:52:31.346Z,14.70
2017-09-29T07:54:59.734Z,14.70
2017-09-29T07:57:28.652Z,14.60
2017-09-29T07:59:56.717Z,14.60
2017-09-29T08:02:25.260Z,14.60
2017-09-29T08:04:56.339Z,14.60
2017-09-29T08:07:25.738Z,14.60
2017-09-29T08:09:54.504Z,14.60
2017-09-29T08:12:23.319Z,14.70
2017-09-29T08:14:51.500Z,14.70
2017-09-29T08:17:20.913Z,14.70
2017-09-29T08:19:49.203Z,14.80
2017-09-29T08:22:16.755Z,14.80
2017-09-29T08:24:44.283Z,14.80
2017-09-29T08:27:12.610Z,14.80
2017-09-29T08:29:40.139Z,14.80
2017-09-29T08:32:07.684Z,14.90
2017-09-29T08:34:35.214Z,14.90
2017-09-29T08:37:03.527Z,15.00
2017-09-29T08:39:31.051Z,14.90
2017-09-29T08:41:59.369Z,15.00
2017-09-29T08:44:26.900Z,15.00
2017-09-29T08:46:54.425Z,15.00
2017-09-29T08:49:21.969Z,15.00
2017-09-29T08:51:49.491Z,15.00
2017-09-29T08:54:17.805Z,15.00
2017-09-29T08:56:45.339Z,14.90
2017-09-29T08:59:13.656Z,15.00
2017-09-29T09:01:41.179Z,15.00
2017-09-29T09:04:08.743Z,15.00
2017-09-29T09:06:36.262Z,15.10
2017-09-29T09:09:04.572Z,15.10
2017-09-29T09:11:32.094Z,15.10
2017-09-29T09:14:00.398Z,15.10
2017-09-29T09:16:27.948Z,15.10
2017-09-29T09:18:55.470Z,15.10
2017-09-29T09:21:23.015Z,15.10
2017-09-29T09:23:50.543Z,15.10
2017-09-29T09:26:18.087Z,15.10
2017-09-29T09:28:46.387Z,15.00
2017-09-29T09:31:14.703Z,15.10
2017-09-29T09:33:42.235Z,15.10
2017-09-29T09:36:09.784Z,15.10
2017-09-29T09:38:37.315Z,15.10
2017-09-29T09:41:04.862Z,15.10
2017-09-29T09:43:32.388Z,15.20
2017-09-29T09:46:00.691Z,15.30
2017-09-29T09:48:28.224Z,15.30
2017-09-29T09:50:55.771Z,15.20
2017-09-29T09:53:23.304Z,15.20
2017-09-29T09:55:50.831Z,15.20
2017-09-29T09:58:18.379Z,15.20
2017-09-29T10:00:45.907Z,15.20
2017-09-29T10:03:13.454Z,15.10
2017-09-29T10:05:40.980Z,15.10
2017-09-29T10:08:08.523Z,15.10
2017-09-29T10:10:36.050Z,15.20
2017-09-29T10:13:04.359Z,15.30
2017-09-29T10:15:31.888Z,15.30
2017-09-29T10:17:59.436Z,15.30
2017-09-29T10:20:26.983Z,15.30
2017-09-29T10:22:54.526Z,15.30
2017-09-29T10:25:22.821Z,15.40
2017-09-29T10:27:51.131Z,15.40
2017-09-29T10:30:18.660Z,15.40
2017-09-29T10:32:46.984Z,15.50
2017-09-29T10:35:14.514Z,15.50
2017-09-29T10:37:42.041Z,15.60
2017-09-29T10:40:09.590Z,15.80
2017-09-29T10:42:37.114Z,15.90
2017-09-29T10:45:04.661Z,16.00
2017-09-29T10:47:32.960Z,16.20
2017-09-29T10:50:00.508Z,16.20
2017-09-29T10:52:28.803Z,16.60
2017-09-29T10:54:57.118Z,16.70
2017-09-29T10:57:24.651Z,16.70
2017-09-29T10:59:52.194Z,16.80
2017-09-29T11:02:19.714Z,16.90
2017-09-29T11:04:47.266Z,16.90
2017-09-29T11:07:14.804Z,17.00
2017-09-29T11:09:43.118Z,16.80
2017-09-29T11:12:11.425Z,16.90
2017-09-29T11:14:38.968Z,16.90
2017-09-29T11:17:06.496Z,16.90
2017-09-29T11:19:34.044Z,16.90
2017-09-29T11:22:01.572Z,16.90
2017-09-29T11:24:29.128Z,16.90
2017-09-29T11:26:56.663Z,16.80
2017-09-29T11:29:24.190Z,16.70
2017-09-29T11:31:51.738Z,16.60
2017-09-29T11:34:19.266Z,16.50
2017-09-29T11:36:46.814Z,16.40
2017-09-29T11:39:14.342Z,16.40
2017-09-29T11:41:41.887Z,16.30
2017-09-29T11:44:10.179Z,16.30
2017-09-29T11:46:38.485Z,16.30
2017-09-29T11:49:06.014Z,16.30
2017-09-29T11:51:33.550Z,16.30
2017-09-29T11:54:01.075Z,16.30
2017-09-29T11:56:28.623Z,16.30
2017-09-29T11:58:56.143Z,16.30
2017-09-29T12:01:23.691Z,16.30
2017-09-29T12:03:51.229Z,16.30
2017-09-29T12:06:19.524Z,16.20
2017-09-29T12:08:47.065Z,16.20
2017-09-29T12:11:14.588Z,16.10
2017-09-29T12:13:42.139Z,16.20
2017-09-29T12:16:09.669Z,16.20
2017-09-29T12:18:37.218Z,16.20
2017-09-29T12:21:04.751Z,16.30
2017-09-29T12:23:32.311Z,16.40
2017-09-29T12:26:00.608Z,16.40
2017-09-29T12:28:28.131Z,16.40
2017-09-29T12:30:55.691Z,16.40
2017-09-29T12:33:23.224Z,16.40
2017-09-29T12:35:51.541Z,16.50
2017-09-29T12:38:19.102Z,16.50
2017-09-29T12:40:47.424Z,16.40
2017-09-29T12:43:14.951Z,16.40
2017-09-29T12:45:42.504Z,16.50
2017-09-29T12:48:10.031Z,16.50
2017-09-29T12:50:37.579Z,16.60
2017-09-29T12:53:05.108Z,16.50
2017-09-29T12:55:32.651Z,16.50
2017-09-29T12:58:00.169Z,16.40
2017-09-29T13:00:28.487Z,16.30
2017-09-29T13:02:56.778Z,16.40
2017-09-29T13:05:25.081Z,16.50
2017-09-29T13:07:53.378Z,16.50
2017-09-29T13:10:20.905Z,16.50
2017-09-29T13:12:48.448Z,16.60
2017-09-29T13:15:15.978Z,16.60
2017-09-29T13:17:43.521Z,16.50
2017-09-29T13:20:11.807Z,16.50
2017-09-29T13:22:39.365Z,16.50
2017-09-29T13:25:06.890Z,16.50
2017-09-29T13:27:34.435Z,16.50
2017-09-29T13:30:01.959Z,16.60
2017-09-29T13:32:29.507Z,16.60
2017-09-29T13:34:57.036Z,16.70
2017-09-29T13:37:25.347Z,16.80
2017-09-29T13:39:52.877Z,16.70
2017-09-29T13:42:20.408Z,16.80
2017-09-29T13:44:47.945Z,16.90
2017-09-29T13:47:15.477Z,16.90
2017-09-29T13:49:43.013Z,16.90
2017-09-29T13:52:10.535Z,17.00
2017-09-29T13:54:38.843Z,17.00
2017-09-29T13:57:06.370Z,17.00
2017-09-29T13:59:34.680Z,17.20
2017-09-29T14:02:02.208Z,17.20
2017-09-29T14:04:29.756Z,17.30
2017-09-29T14:06:57.286Z,17.40
2017-09-29T14:09:24.810Z,17.40
2017-09-29T14:11:53.113Z,17.40
2017-09-29T14:14:20.634Z,17.50
2017-09-29T14:16:48.182Z,17.40
2017-09-29T14:19:15.701Z,17.40
2017-09-29T14:21:43.241Z,17.30
2017-09-29T14:24:10.768Z,17.30
2017-09-29T14:26:38.314Z,17.20
2017-09-29T14:29:05.842Z,17.30
2017-09-29T14:31:34.153Z,17.40
2017-09-29T14:34:01.678Z,17.40
2017-09-29T14:36:29.229Z,17.50
2017-09-29T14:38:56.757Z,17.40
2017-09-29T14:41:24.283Z,17.50
2017-09-29T14:43:51.827Z,17.50
2017-09-29T14:46:19.361Z,17.40
2017-09-29T14:48:47.671Z,17.20
2017-09-29T14:51:15.959Z,17.10
2017-09-29T14:53:44.270Z,17.00
2017-09-29T14:56:11.796Z,17.00
2017-09-29T14:58:39.345Z,17.00
2017-09-29T15:01:06.879Z,16.90
2017-09-29T15:03:34.422Z,16.80
2017-09-29T15:06:01.946Z,16.70
2017-09-29T15:08:30.239Z,16.60
2017-09-29T15:10:57.790Z,16.50
2017-09-29T15:13:25.318Z,16.50
2017-09-29T15:15:53.627Z,16.50
2017-09-29T15:18:21.158Z,16.40
2017-09-29T15:20:48.697Z,16.40
2017-09-29T15:23:16.225Z,16.50
2017-09-29T15:25:43.770Z,16.50
2017-09-29T15:28:11.290Z,16.40
2017-09-29T15:30:38.829Z,16.50
2017-09-29T15:33:06.360Z,16.50
2017-09-29T15:35:33.890Z,16.40
2017-09-29T15:38:01.431Z,16.40
2017-09-29T15:40:29.719Z,16.40
2017-09-29T15:42:57.259Z,16.40
2017-09-29T15:45:24.790Z,16.40
2017-09-29T15:47:53.095Z,16.40
2017-09-29T15:50:20.617Z,16.40
2017-09-29T15:52:48.158Z,16.40
2017-09-29T15:55:15.679Z,16.40
2017-09-29T15:57:43.235Z,16.30
2017-09-29T16:00:11.538Z,16.30
2017-09-29T16:02:39.078Z,16.30
2017-09-29T16:05:07.393Z,16.30
2017-09-29T16:07:34.918Z,16.20
2017-09-29T16:10:02.466Z,16.30
2017-09-29T16:12:29.998Z,16.20
2017-09-29T16:14:57.551Z,16.20
2017-09-29T16:17:25.073Z,16.20
2017-09-29T16:19:52.702Z,16.10
2017-09-29T16:22:20.223Z,16.10
2017-09-29T16:24:47.748Z,16.10
2017-09-29T16:27:16.055Z,16.00
2017-09-29T16:29:43.586Z,16.00
2017-09-29T16:32:11.126Z,15.90
2017-09-29T16:34:38.690Z,15.90
2017-09-29T16:37:06.225Z,15.90
2017-09-29T16:39:33.749Z,15.90
2017-09-29T16:42:01.289Z,15.80
2017-09-29T16:44:28.819Z,15.80
2017-09-29T16:46:56.369Z,15.70
2017-09-29T16:49:24.661Z,15.60
2017-09-29T16:51:52.182Z,15.60
2017-09-29T16:54:19.724Z,15.50
2017-09-29T16:56:47.250Z,15.50
2017-09-29T16:59:14.795Z,15.40
2017-09-29T17:01:42.318Z,15.40
2017-09-29T17:04:10.632Z,15.30
2017-09-29T17:06:38.167Z,15.30
2017-09-29T17:09:05.715Z,15.30
2017-09-29T17:11:33.239Z,15.30
2017-09-29T17:14:01.536Z,15.20
2017-09-29T17:16:29.087Z,15.20
2017-09-29T17:18:56.611Z,15.10
2017-09-29T17:21:24.924Z,15.10
2017-09-29T17:23:52.451Z,15.10
2017-09-29T17:26:19.994Z,15.10
2017-09-29T17:28:47.514Z,15.00
2017-09-29T17:31:15.823Z,15.00
2017-09-29T17:33:43.347Z,15.00
2017-09-29T17:36:10.891Z,14.90
2017-09-29T17:38:38.419Z,14.90
2017-09-29T17:41:05.971Z,14.90
2017-09-29T17:43:33.498Z,14.90
2017-09-29T17:46:01.791Z,14.90
2017-09-29T17:48:30.099Z,14.80
2017-09-29T17:50:57.628Z,14.80
2017-09-29T17:53:25.175Z,14.80
2017-09-29T17:55:53.466Z,14.80
2017-09-29T17:58:21.777Z,14.70
2017-09-29T18:00:49.306Z,14.70
2017-09-29T18:03:17.615Z,14.60
2017-09-29T18:05:45.899Z,14.60
2017-09-29T18:08:13.455Z,14.50
2017-09-29T18:10:41.746Z,14.60
2017-09-29T18:13:09.272Z,14.50
2017-09-29T18:15:36.813Z,14.60
2017-09-29T18:18:05.955Z,14.50
2017-09-29T18:20:33.503Z,14.50
2017-09-29T18:23:01.026Z,14.50
2017-09-29T18:25:28.570Z,14.50
2017-09-29T18:27:56.098Z,14.50
2017-09-29T18:30:23.654Z,14.50
2017-09-29T18:32:51.191Z,14.40
2017-09-29T18:35:18.750Z,14.40
2017-09-29T18:37:47.034Z,14.40
2017-09-29T18:40:17.070Z,14.40
2017-09-29T18:42:44.612Z,14.40
2017-09-29T18:45:16.095Z,14.40
2017-09-29T18:47:43.639Z,14.30
2017-09-29T18:50:11.927Z,14.30
2017-09-29T18:52:39.477Z,14.30
2017-09-29T18:55:06.998Z,14.30
2017-09-29T18:57:34.535Z,14.20
2017-09-29T19:00:02.084Z,14.10
2017-09-29T19:02:29.626Z,14.00
2017-09-29T19:04:57.153Z,14.00
2017-09-29T19:07:24.695Z,14.00
2017-09-29T19:09:52.291Z,14.00
2017-09-29T19:12:19.825Z,14.00
2017-09-29T19:14:47.370Z,14.00
2017-09-29T19:17:14.895Z,14.10
2017-09-29T19:19:42.439Z,14.10
2017-09-29T19:22:10.739Z,14.10
2017-09-29T19:24:38.283Z,14.10
2017-09-29T19:27:05.814Z,14.00
2017-09-29T19:29:33.364Z,14.10
2017-09-29T19:32:00.886Z,14.10
2017-09-29T19:34:28.434Z,14.00
2017-09-29T19:36:55.963Z,14.00
2017-09-29T19:39:24.279Z,14.00
2017-09-29T19:41:51.798Z,14.00
2017-09-29T19:44:19.341Z,14.00
2017-09-29T19:46:46.857Z,14.00
2017-09-29T19:49:15.175Z,14.00
2017-09-29T19:51:42.698Z,14.00
2017-09-29T19:54:10.228Z,14.00
2017-09-29T19:56:38.538Z,13.90
2017-09-29T19:59:06.066Z,13.90
2017-09-29T20:01:33.610Z,13.90
2017-09-29T20:04:01.135Z,13.80
2017-09-29T20:06:29.440Z,13.80
2017-09-29T20:08:56.970Z,13.80
2017-09-29T20:11:25.283Z,13.90
2017-09-29T20:13:52.812Z,13.80
2017-09-29T20:16:20.359Z,13.90
2017-09-29T20:18:47.884Z,13.90
2017-09-29T20:21:15.421Z,13.90
2017-09-29T20:23:42.948Z,13.80
2017-09-29T20:26:10.509Z,13.70
2017-09-29T20:28:38.804Z,13.70
2017-09-29T20:31:06.337Z,13.70
2017-09-29T20:33:34.682Z,13.70
2017-09-29T20:36:02.206Z,13.70
2017-09-29T20:38:29.750Z,13.70
2017-09-29T20:40:58.044Z,13.70
2017-09-29T20:43:25.595Z,13.70
2017-09-29T20:45:53.126Z,13.80
2017-09-29T20:48:20.675Z,13.80
2017-09-29T20:50:48.206Z,13.80
2017-09-29T20:53:15.754Z,13.80
2017-09-29T20:55:43.281Z,13.70
2017-09-29T20:58:11.586Z,13.70
2017-09-29T21:00:39.102Z,13.70
2017-09-29T21:03:06.650Z,13.60
2017-09-29T21:05:34.174Z,13.50
2017-09-29T21:08:02.472Z,13.50
2017-09-29T21:10:30.010Z,13.50
2017-09-29T21:12:57.536Z,13.50
2017-09-29T21:15:25.085Z,13.50
2017-09-29T21:17:52.615Z,13.50
2017-09-29T21:20:20.169Z,13.60
2017-09-29T21:22:47.694Z,13.60
2017-09-29T21:25:15.238Z,13.60
2017-09-29T21:27:42.764Z,13.60
2017-09-29T21:30:10.313Z,13.70
2017-09-29T21:32:37.838Z,13.60
2017-09-29T21:35:05.390Z,13.70
2017-09-29T21:37:33.681Z,13.70
2017-09-29T21:40:01.209Z,13.70
2017-09-29T21:42:28.749Z,13.70
2017-09-29T21:44:56.273Z,13.80
2017-09-29T21:47:23.820Z,13.70
2017-09-29T21:49:51.351Z,13.70
2017-09-29T21:52:18.897Z,13.80
2017-09-29T21:54:46.426Z,13.80
2017-09-29T21:57:13.962Z,13.80
2017-09-29T21:59:41.494Z,13.80
2017-09-29T22:02:09.038Z,13.80
2017-09-29T22:04:36.564Z,13.80
2017-09-29T22:07:04.131Z,13.90
2017-09-29T22:09:31.649Z,13.90
2017-09-29T22:11:59.173Z,13.90
2017-09-29T22:14:27.492Z,13.80
2017-09-29T22:16:55.019Z,13.80
2017-09-29T22:19:22.563Z,13.80
2017-09-29T22:21:50.098Z,13.80
2017-09-29T22:24:18.407Z,13.80
2017-09-29T22:26:45.936Z,13.80
2017-09-29T22:29:14.246Z,13.70
2017-09-29T22:31:42.351Z,13.70
2017-09-29T22:34:09.898Z,13.80
2017-09-29T22:36:37.427Z,13.80
2017-09-29T22:39:04.975Z,13.80
2017-09-29T22:41:32.500Z,13.80
2017-09-29T22:44:00.056Z,13.80
2017-09-29T22:46:27.584Z,13.70
2017-09-29T22:48:55.106Z,13.70
2017-09-29T22:51:23.421Z,13.70
2017-09-29T22:53:50.943Z,13.80
2017-09-29T22:56:18.494Z,13.80
2017-09-29T22:58:46.015Z,13.80
2017-09-29T23:01:14.330Z,13.80
2017-09-29T23:03:41.861Z,13.80
2017-09-29T23:06:10.166Z,13.70
2017-09-29T23:08:37.692Z,13.80
2017-09-29T23:11:06.008Z,13.80
2017-09-29T23:13:35.040Z,13.80
2017-09-29T23:16:02.602Z,13.80
2017-09-29T23:18:30.134Z,13.70
2017-09-29T23:20:58.448Z,13.70
2017-09-29T23:23:25.966Z,13.60
2017-09-29T23:25:53.517Z,13.60
2017-09-29T23:28:21.039Z,13.70
2017-09-29T23:30:48.563Z,13.70
2017-09-29T23:33:16.106Z,13.70
2017-09-29T23:35:44.393Z,13.70
2017-09-29T23:38:11.944Z,13.60
2017-09-29T23:40:40.239Z,13.60
2017-09-29T23:43:07.786Z,13.60
2017-09-29T23:45:35.312Z,13.60
2017-09-29T23:48:02.859Z,13.70
2017-09-29T23:50:30.388Z,13.70
2017-09-29T23:52:57.944Z,13.60
2017-09-29T23:55:25.472Z,13.60
2017-09-29T23:57:53.755Z,13.50
